createdAt,value
2022-08-04T00:02:53.830Z,89.60
2022-08-04T00:05:57.854Z,90.10
2022-08-04T00:08:46.283Z,89.70
2022-08-04T00:11:19.865Z,89.70
2022-08-04T00:14:03.146Z,89.90
2022-08-04T00:16:37.579Z,90.20
2022-08-04T00:19:31.840Z,90.30
2022-08-04T00:22:05.089Z,90.20
2022-08-04T00:24:33.885Z,89.70
2022-08-04T00:27:00.642Z,89.40
2022-08-04T00:29:27.783Z,88.80
2022-08-04T00:31:57.859Z,88.40
2022-08-04T00:34:29.423Z,88.90
2022-08-04T00:36:57.185Z,89.60
2022-08-04T00:39:24.408Z,90.00
2022-08-04T00:42:09.854Z,90.60
2022-08-04T00:44:53.583Z,91.30
2022-08-04T00:47:40.370Z,91.40
2022-08-04T00:50:11.424Z,91.40
2022-08-04T00:52:47.310Z,91.40
2022-08-04T00:55:30.017Z,91.10
2022-08-04T00:58:19.009Z,91.10
2022-08-04T01:01:05.795Z,91.30
2022-08-04T01:03:50.668Z,91.80
2022-08-04T01:06:38.180Z,91.80
2022-08-04T01:09:23.666Z,92.30
2022-08-04T01:12:09.346Z,92.40
2022-08-04T01:14:47.384Z,92.40
2022-08-04T01:17:22.736Z,92.30
2022-08-04T01:20:09.961Z,92.40
2022-08-04T01:23:07.508Z,92.20
2022-08-04T01:25:57.471Z,91.60
2022-08-04T01:28:38.940Z,92.00
2022-08-04T01:31:35.786Z,92.40
2022-08-04T01:34:06.556Z,92.30
2022-08-04T01:36:35.826Z,92.50
2022-08-04T01:39:24.900Z,92.40
2022-08-04T01:41:58.506Z,92.40
2022-08-04T01:44:29.599Z,92.30
2022-08-04T01:46:56.602Z,92.50
2022-08-04T01:49:29.983Z,93.00
2022-08-04T01:52:09.295Z,93.30
2022-08-04T01:54:39.456Z,93.00
2022-08-04T01:57:38.713Z,93.10
2022-08-04T01:59:58.298Z,92.50
2022-08-04T02:02:25.158Z,92.50
2022-08-04T02:04:52.129Z,93.00
2022-08-04T02:07:31.036Z,93.60
2022-08-04T02:10:08.483Z,93.50
2022-08-04T02:13:07.378Z,92.70
2022-08-04T02:15:52.753Z,93.10
2022-08-04T02:18:33.257Z,94.20
2022-08-04T02:21:03.596Z,94.90
2022-08-04T02:23:38.915Z,95.20
2022-08-04T02:26:19.357Z,95.80
2022-08-04T02:28:52.222Z,96.20
2022-08-04T02:31:31.608Z,96.80
2022-08-04T02:34:03.864Z,96.60
2022-08-04T02:36:41.799Z,96.30
2022-08-04T02:39:11.045Z,96.00
2022-08-04T02:41:40.176Z,96.10
2022-08-04T02:44:09.217Z,95.80
2022-08-04T02:46:37.585Z,95.70
2022-08-04T02:49:09.418Z,95.50
2022-08-04T02:51:40.318Z,95.50
2022-08-04T02:54:07.373Z,95.90
2022-08-04T02:56:35.580Z,96.10
2022-08-04T02:59:05.689Z,96.60
2022-08-04T03:01:33.156Z,97.80
2022-08-04T03:04:24.722Z,98.40
2022-08-04T03:06:57.828Z,98.30
2022-08-04T03:09:46.514Z,98.50
2022-08-04T03:12:30.989Z,98.50
2022-08-04T03:15:28.955Z,98.50
2022-08-04T03:18:37.286Z,98.50
2022-08-04T03:21:22.246Z,98.50
2022-08-04T03:24:08.784Z,98.50
2022-08-04T03:26:55.195Z,98.50
2022-08-04T03:29:36.036Z,98.50
2022-08-04T03:32:31.102Z,98.50
2022-08-04T03:35:03.540Z,98.20
2022-08-04T03:37:58.158Z,97.90
2022-08-04T03:40:33.692Z,97.90
2022-08-04T03:43:57.314Z,97.60
2022-08-04T03:46:35.451Z,97.60
2022-08-04T03:49:34.112Z,97.70
2022-08-04T03:53:03.502Z,97.70
2022-08-04T03:55:54.906Z,97.40
2022-08-04T03:58:49.746Z,97.30
2022-08-04T04:02:06.868Z,97.70
2022-08-04T04:04:33.767Z,98.10
2022-08-04T04:07:36.459Z,97.80
2022-08-04T04:10:26.569Z,97.90
2022-08-04T04:13:27.214Z,98.50
2022-08-04T04:16:23.778Z,98.50
2022-08-04T04:18:56.067Z,98.50
2022-08-04T04:21:39.479Z,98.40
2022-08-04T04:24:32.744Z,97.90
2022-08-04T04:27:10.013Z,97.80
2022-08-04T04:29:51.612Z,97.70
2022-08-04T04:32:36.265Z,97.60
2022-08-04T04:35:19.998Z,97.80
2022-08-04T04:37:48.600Z,97.90
2022-08-04T04:40:32.771Z,98.10
2022-08-04T04:43:16.185Z,98.10
2022-08-04T04:46:10.336Z,98.20
2022-08-04T04:48:45.762Z,98.40
2022-08-04T04:51:51.177Z,98.50
2022-08-04T04:54:43.709Z,98.50
2022-08-04T04:57:15.310Z,98.50
2022-08-04T04:59:56.456Z,98.50
2022-08-04T05:02:41.854Z,98.20
2022-08-04T05:05:39.489Z,98.00
2022-08-04T05:08:42.727Z,97.90
2022-08-04T05:11:54.362Z,97.60
2022-08-04T05:14:39.852Z,97.10
2022-08-04T05:17:16.654Z,96.30
2022-08-04T05:19:57.613Z,95.40
2022-08-04T05:22:32.619Z,94.30
2022-08-04T05:25:04.825Z,93.30
2022-08-04T05:27:49.077Z,92.50
2022-08-04T05:30:17.363Z,91.80
2022-08-04T05:32:54.777Z,90.70
2022-08-04T05:36:16.303Z,88.80
2022-08-04T05:38:31.083Z,88.10
2022-08-04T05:40:59.097Z,87.30
2022-08-04T05:43:26.622Z,87.20
2022-08-04T05:45:54.461Z,86.50
2022-08-04T05:48:22.147Z,85.80
2022-08-04T05:50:49.493Z,85.70
2022-08-04T05:53:17.907Z,85.50
2022-08-04T05:55:56.608Z,84.90
2022-08-04T05:58:30.532Z,85.30
2022-08-04T06:01:01.626Z,84.80
2022-08-04T06:03:30.638Z,84.30
2022-08-04T06:05:57.879Z,83.40
2022-08-04T06:08:25.211Z,83.20
2022-08-04T06:10:54.015Z,83.10
2022-08-04T06:13:49.687Z,83.50
2022-08-04T06:16:28.795Z,84.00
2022-08-04T06:20:01.047Z,83.00
2022-08-04T06:21:52.383Z,82.70
2022-08-04T06:24:22.191Z,82.60
2022-08-04T06:26:50.500Z,82.40
2022-08-04T06:29:36.481Z,82.70
2022-08-04T06:32:27.209Z,83.20
2022-08-04T06:34:58.896Z,81.90
2022-08-04T06:37:42.172Z,81.60
2022-08-04T06:40:29.654Z,79.90
2022-08-04T06:43:00.709Z,79.20
2022-08-04T06:45:28.500Z,78.70
2022-08-04T06:47:56.670Z,78.20
2022-08-04T06:51:25.896Z,78.60
2022-08-04T06:53:12.078Z,77.60
2022-08-04T06:55:40.778Z,77.70
2022-08-04T06:58:08.407Z,77.30
2022-08-04T07:00:36.779Z,77.00
2022-08-04T07:03:04.373Z,75.40
2022-08-04T07:05:31.968Z,75.80
2022-08-04T07:07:59.443Z,75.00
2022-08-04T07:10:28.333Z,76.10
2022-08-04T07:12:56.781Z,74.80
2022-08-04T07:15:25.262Z,73.40
2022-08-04T07:17:53.644Z,73.90
2022-08-04T07:20:33.007Z,73.50
2022-08-04T07:23:03.906Z,73.70
2022-08-04T07:26:00.166Z,72.70
2022-08-04T07:28:18.821Z,72.00
2022-08-04T07:30:48.164Z,71.50
2022-08-04T07:33:16.646Z,71.80
2022-08-04T07:36:04.479Z,72.00
2022-08-04T07:38:30.862Z,72.10
2022-08-04T07:40:59.871Z,70.50
2022-08-04T07:43:27.645Z,71.00
2022-08-04T07:45:54.399Z,71.20
2022-08-04T07:48:23.106Z,70.40
2022-08-04T07:50:51.431Z,70.90
2022-08-04T07:53:55.012Z,70.80
2022-08-04T07:56:06.097Z,71.30
2022-08-04T07:58:32.839Z,70.90
2022-08-04T08:01:00.344Z,71.00
2022-08-04T08:03:27.725Z,69.50
2022-08-04T08:06:17.524Z,69.70
2022-08-04T08:08:41.177Z,68.80
2022-08-04T08:11:09.248Z,69.10
2022-08-04T08:13:37.160Z,69.40
2022-08-04T08:16:05.049Z,68.70
2022-08-04T08:18:32.154Z,68.30
2022-08-04T08:20:59.061Z,68.10
2022-08-04T08:23:26.475Z,67.80
2022-08-04T08:25:53.358Z,67.70
2022-08-04T08:28:20.292Z,67.20
2022-08-04T08:30:52.792Z,68.60
2022-08-04T08:33:21.687Z,68.40
2022-08-04T08:36:01.546Z,68.00
2022-08-04T08:38:53.990Z,68.10
2022-08-04T08:41:20.692Z,67.90
2022-08-04T08:44:36.368Z,68.30
2022-08-04T08:47:13.450Z,68.20
2022-08-04T08:50:04.435Z,67.90
2022-08-04T08:53:01.272Z,66.70
2022-08-04T08:56:06.618Z,66.70
2022-08-04T08:59:41.106Z,66.20
2022-08-04T09:03:04.287Z,66.50
2022-08-04T09:05:51.060Z,66.50
2022-08-04T09:08:55.282Z,65.70
2022-08-04T09:11:28.913Z,66.30
2022-08-04T09:14:10.488Z,65.50
2022-08-04T09:16:44.947Z,65.30
2022-08-04T09:19:48.568Z,65.10
2022-08-04T09:22:33.503Z,65.80
2022-08-04T09:25:18.404Z,65.60
2022-08-04T09:27:56.775Z,65.20
2022-08-04T09:30:46.958Z,64.90
2022-08-04T09:33:44.519Z,65.20
2022-08-04T09:36:48.446Z,63.60
2022-08-04T09:39:33.238Z,65.10
2022-08-04T09:42:14.702Z,63.90
2022-08-04T09:45:26.030Z,64.70
2022-08-04T09:47:58.908Z,63.90
2022-08-04T09:50:46.913Z,65.30
2022-08-04T09:53:53.767Z,65.00
2022-08-04T09:56:27.060Z,64.40
2022-08-04T09:59:07.833Z,63.50
2022-08-04T10:01:36.698Z,63.40
2022-08-04T10:04:07.474Z,63.40
2022-08-04T10:07:00.698Z,62.00
2022-08-04T10:09:39.063Z,62.90
2022-08-04T10:12:12.071Z,61.60
2022-08-04T10:14:59.886Z,61.20
2022-08-04T10:17:33.449Z,62.10
2022-08-04T10:20:34.023Z,61.40
2022-08-04T10:23:12.919Z,61.40
2022-08-04T10:26:06.836Z,59.90
2022-08-04T10:28:51.684Z,61.00
2022-08-04T10:31:30.054Z,61.30
2022-08-04T10:34:22.269Z,60.60
2022-08-04T10:36:56.228Z,62.20
2022-08-04T10:39:43.702Z,60.90
2022-08-04T10:42:24.989Z,61.10
2022-08-04T10:45:19.664Z,61.50
2022-08-04T10:48:11.013Z,61.60
2022-08-04T10:50:42.561Z,61.70
2022-08-04T10:53:17.239Z,61.80
2022-08-04T10:56:06.399Z,60.50
2022-08-04T10:58:49.704Z,59.90
2022-08-04T11:02:00.838Z,60.80
2022-08-04T11:04:40.018Z,59.60
2022-08-04T11:07:08.600Z,60.00
2022-08-04T11:09:35.839Z,59.00
2022-08-04T11:12:25.316Z,59.10
2022-08-04T11:15:16.764Z,59.50
2022-08-04T11:17:50.276Z,58.90
2022-08-04T11:20:36.487Z,57.00
2022-08-04T11:23:12.885Z,58.00
2022-08-04T11:26:00.606Z,58.20
2022-08-04T11:28:56.052Z,58.70
2022-08-04T11:31:34.538Z,58.10
2022-08-04T11:34:20.908Z,58.70
2022-08-04T11:37:13.775Z,57.10
2022-08-04T11:39:50.081Z,56.90
2022-08-04T11:42:23.036Z,57.20
2022-08-04T11:44:51.697Z,55.90
2022-08-04T11:47:30.279Z,55.30
2022-08-04T11:50:02.847Z,55.30
2022-08-04T11:52:32.476Z,55.70
2022-08-04T11:55:02.400Z,56.00
2022-08-04T11:57:35.869Z,55.60
2022-08-04T12:00:09.954Z,55.10
2022-08-04T12:02:39.896Z,55.30
2022-08-04T12:05:09.224Z,55.50
2022-08-04T12:07:50.449Z,55.40
2022-08-04T12:10:50.421Z,54.60
2022-08-04T12:13:40.608Z,55.40
2022-08-04T12:16:18.230Z,55.60
2022-08-04T12:19:05.868Z,55.10
2022-08-04T12:21:53.009Z,55.10
2022-08-04T12:24:26.046Z,55.20
2022-08-04T12:26:56.907Z,54.60
2022-08-04T12:29:26.041Z,55.40
2022-08-04T12:32:00.457Z,55.40
2022-08-04T12:34:33.956Z,55.00
2022-08-04T12:37:26.646Z,54.50
2022-08-04T12:40:27.310Z,55.20
2022-08-04T12:42:59.740Z,54.30
2022-08-04T12:45:27.427Z,55.30
2022-08-04T12:47:58.851Z,55.40
2022-08-04T12:50:26.480Z,55.10
2022-08-04T12:53:04.318Z,54.40
2022-08-04T12:55:34.051Z,55.10
2022-08-04T12:58:03.889Z,54.20
2022-08-04T13:00:40.542Z,55.20
2022-08-04T13:03:16.771Z,54.10
2022-08-04T13:05:44.904Z,54.40
2022-08-04T13:08:12.977Z,54.60
2022-08-04T13:10:46.334Z,54.90
2022-08-04T13:13:26.919Z,54.90
2022-08-04T13:16:02.610Z,54.70
2022-08-04T13:18:33.340Z,53.60
2022-08-04T13:21:20.147Z,54.00
2022-08-04T13:24:10.489Z,54.70
2022-08-04T13:26:56.923Z,53.60
2022-08-04T13:29:57.795Z,54.20
2022-08-04T13:32:20.366Z,54.80
2022-08-04T13:34:52.592Z,55.10
2022-08-04T13:37:31.869Z,54.70
2022-08-04T13:39:59.603Z,55.10
2022-08-04T13:42:27.196Z,55.10
2022-08-04T13:44:58.563Z,54.20
2022-08-04T13:47:35.224Z,54.10
2022-08-04T13:50:23.635Z,53.70
2022-08-04T13:52:53.158Z,54.00
2022-08-04T13:55:22.549Z,55.00
2022-08-04T13:57:54.725Z,53.50
2022-08-04T14:00:29.161Z,53.70
2022-08-04T14:03:19.190Z,53.90
2022-08-04T14:06:16.092Z,53.60
2022-08-04T14:09:00.738Z,53.60
2022-08-04T14:12:09.750Z,52.50
2022-08-04T14:14:34.982Z,52.70
2022-08-04T14:17:20.370Z,52.10
2022-08-04T14:19:47.903Z,53.20
2022-08-04T14:22:26.877Z,52.60
2022-08-04T14:25:17.107Z,52.60
2022-08-04T14:27:52.878Z,51.90
2022-08-04T14:30:37.145Z,51.30
2022-08-04T14:34:02.343Z,51.60
2022-08-04T14:36:03.933Z,52.10
2022-08-04T14:38:44.141Z,52.50
2022-08-04T14:41:11.677Z,53.00
2022-08-04T14:44:03.063Z,52.80
2022-08-04T14:46:36.952Z,53.40
2022-08-04T14:49:10.230Z,53.80
2022-08-04T14:51:45.608Z,53.80
2022-08-04T14:54:18.360Z,54.10
2022-08-04T14:56:58.250Z,53.70
2022-08-04T14:59:25.339Z,54.20
2022-08-04T15:02:01.095Z,53.60
2022-08-04T15:04:31.519Z,53.40
2022-08-04T15:07:04.374Z,52.60
2022-08-04T15:09:33.057Z,52.20
2022-08-04T15:12:00.298Z,52.50
2022-08-04T15:14:36.367Z,53.40
2022-08-04T15:17:11.476Z,53.00
2022-08-04T15:19:39.988Z,54.20
2022-08-04T15:22:07.346Z,54.10
2022-08-04T15:24:44.441Z,54.10
2022-08-04T15:27:21.665Z,54.30
2022-08-04T15:29:59.366Z,54.00
2022-08-04T15:32:34.095Z,54.40
2022-08-04T15:35:09.778Z,54.90
2022-08-04T15:38:00.038Z,54.00
2022-08-04T15:40:52.340Z,54.60
2022-08-04T15:43:40.400Z,54.70
2022-08-04T15:46:42.411Z,55.10
2022-08-04T15:48:53.945Z,55.30
2022-08-04T15:51:31.747Z,56.00
2022-08-04T15:54:03.650Z,55.80
2022-08-04T15:56:30.946Z,56.20
2022-08-04T15:58:58.220Z,56.20
2022-08-04T16:01:25.295Z,56.10
2022-08-04T16:03:58.946Z,56.60
2022-08-04T16:06:29.835Z,56.30
2022-08-04T16:09:01.703Z,57.40
2022-08-04T16:11:32.852Z,57.50
2022-08-04T16:14:02.573Z,57.80
2022-08-04T16:16:42.097Z,57.70
2022-08-04T16:19:16.638Z,57.70
2022-08-04T16:21:58.375Z,57.60
2022-08-04T16:24:38.277Z,57.70
2022-08-04T16:27:17.391Z,57.80
2022-08-04T16:29:47.057Z,57.80
2022-08-04T16:32:16.872Z,58.30
2022-08-04T16:35:04.791Z,58.00
2022-08-04T16:37:37.628Z,57.00
2022-08-04T16:40:33.751Z,56.50
2022-08-04T16:43:06.499Z,57.50
2022-08-04T16:46:03.686Z,57.90
2022-08-04T16:48:31.924Z,58.10
2022-08-04T16:51:31.253Z,57.70
2022-08-04T16:54:05.587Z,58.10
2022-08-04T16:56:35.360Z,58.10
2022-08-04T16:59:07.367Z,58.50
2022-08-04T17:01:34.680Z,59.10
2022-08-04T17:04:05.267Z,58.80
2022-08-04T17:06:40.188Z,59.20
2022-08-04T17:09:14.261Z,59.40
2022-08-04T17:11:42.659Z,59.70
2022-08-04T17:14:09.863Z,59.70
2022-08-04T17:16:40.185Z,60.10
2022-08-04T17:19:24.096Z,60.00
2022-08-04T17:22:04.541Z,60.50
2022-08-04T17:24:38.555Z,60.10
2022-08-04T17:28:20.555Z,60.50
2022-08-04T17:29:53.289Z,60.90
2022-08-04T17:32:21.848Z,60.90
2022-08-04T17:34:55.353Z,60.70
2022-08-04T17:37:41.306Z,61.00
2022-08-04T17:40:17.864Z,61.50
2022-08-04T17:42:45.763Z,61.40
2022-08-04T17:45:50.765Z,61.80
2022-08-04T17:48:24.441Z,61.50
2022-08-04T17:50:51.983Z,61.70
2022-08-04T17:54:01.761Z,62.60
2022-08-04T17:56:34.089Z,63.10
2022-08-04T17:59:57.029Z,64.00
2022-08-04T18:02:05.557Z,63.90
2022-08-04T18:04:39.574Z,64.60
2022-08-04T18:08:38.248Z,64.40
2022-08-04T18:10:43.271Z,66.00
2022-08-04T18:13:21.626Z,67.90
2022-08-04T18:15:48.488Z,68.80
2022-08-04T18:18:23.254Z,67.30
2022-08-04T18:20:50.636Z,68.30
2022-08-04T18:23:17.544Z,67.60
2022-08-04T18:25:51.799Z,70.30
2022-08-04T18:28:26.541Z,67.60
2022-08-04T18:30:55.496Z,71.90
2022-08-04T18:33:37.482Z,72.20
2022-08-04T18:36:34.418Z,73.80
2022-08-04T18:38:55.548Z,72.50
2022-08-04T18:41:26.454Z,73.20
2022-08-04T18:43:56.077Z,74.00
2022-08-04T18:46:27.187Z,74.90
2022-08-04T18:48:54.627Z,75.10
2022-08-04T18:51:25.137Z,74.70
2022-08-04T18:53:58.869Z,76.00
2022-08-04T18:56:29.792Z,76.10
2022-08-04T18:59:00.568Z,75.40
2022-08-04T19:04:34.110Z,77.80
2022-08-04T19:07:28.645Z,79.80
2022-08-04T19:09:51.812Z,79.60
2022-08-04T19:12:26.692Z,79.60
2022-08-04T19:15:10.257Z,79.60
2022-08-04T19:17:53.701Z,76.80
2022-08-04T19:20:28.085Z,77.50
2022-08-04T19:24:10.159Z,77.30
2022-08-04T19:28:34.976Z,77.50
2022-08-04T19:31:07.356Z,75.70
2022-08-04T19:33:58.929Z,74.70
2022-08-04T19:36:27.715Z,74.60
2022-08-04T19:38:57.380Z,76.70
2022-08-04T19:41:26.546Z,77.80
2022-08-04T19:43:54.417Z,78.10
2022-08-04T19:46:21.543Z,78.20
2022-08-04T19:48:59.838Z,78.40
2022-08-04T19:51:28.881Z,77.70
2022-08-04T19:54:03.997Z,77.80
2022-08-04T19:56:40.668Z,77.50
2022-08-04T19:59:11.033Z,77.30
2022-08-04T20:01:44.380Z,76.60
2022-08-04T20:04:11.776Z,76.70
2022-08-04T20:06:39.534Z,76.70
2022-08-04T20:09:26.586Z,76.90
2022-08-04T20:11:53.421Z,77.70
2022-08-04T20:14:31.399Z,75.60
2022-08-04T20:17:03.354Z,75.90
2022-08-04T20:19:37.794Z,77.80
2022-08-04T20:22:04.845Z,77.30
2022-08-04T20:24:44.162Z,77.20
2022-08-04T20:27:17.377Z,77.80
2022-08-04T20:29:49.229Z,77.90
2022-08-04T20:32:27.005Z,78.90
2022-08-04T20:34:56.330Z,79.40
2022-08-04T20:37:25.084Z,78.10
2022-08-04T20:39:58.619Z,78.50
2022-08-04T20:42:33.760Z,79.00
2022-08-04T20:45:01.424Z,79.10
2022-08-04T20:47:35.191Z,80.00
2022-08-04T20:50:16.118Z,80.20
2022-08-04T20:52:44.223Z,79.90
2022-08-04T20:55:10.964Z,78.90
2022-08-04T20:57:48.560Z,79.50
2022-08-04T21:00:29.764Z,79.00
2022-08-04T21:02:57.858Z,78.50
2022-08-04T21:05:26.442Z,79.30
2022-08-04T21:07:56.826Z,79.80
2022-08-04T21:10:27.454Z,80.50
2022-08-04T21:12:54.445Z,80.00
2022-08-04T21:15:25.634Z,80.40
2022-08-04T21:17:58.777Z,80.30
2022-08-04T21:20:32.334Z,78.70
2022-08-04T21:23:02.378Z,78.60
2022-08-04T21:25:32.309Z,79.30
2022-08-04T21:28:09.792Z,79.20
2022-08-04T21:30:39.802Z,79.40
2022-08-04T21:33:20.365Z,79.70
2022-08-04T21:35:48.950Z,79.70
2022-08-04T21:38:28.067Z,80.00
2022-08-04T21:41:01.967Z,79.50
2022-08-04T21:43:30.055Z,79.30
2022-08-04T21:46:09.549Z,79.30
2022-08-04T21:48:38.289Z,79.40
2022-08-04T21:52:00.106Z,80.00
2022-08-04T21:54:11.648Z,80.30
2022-08-04T21:56:42.156Z,80.00
2022-08-04T21:59:18.485Z,80.20
2022-08-04T22:01:54.551Z,81.40
2022-08-04T22:04:21.674Z,80.30
2022-08-04T22:06:52.521Z,80.30
2022-08-04T22:09:21.684Z,80.00
2022-08-04T22:11:50.995Z,80.00
2022-08-04T22:14:27.278Z,79.80
2022-08-04T22:16:57.023Z,79.60
2022-08-04T22:19:39.779Z,80.00
2022-08-04T22:22:09.613Z,79.20
2022-08-04T22:24:40.434Z,79.80
2022-08-04T22:27:11.965Z,79.70
2022-08-04T22:29:39.413Z,80.60
2022-08-04T22:32:11.636Z,81.30
2022-08-04T22:34:40.159Z,81.30
2022-08-04T22:37:12.732Z,81.80
2022-08-04T22:39:56.833Z,81.90
2022-08-04T22:42:24.122Z,82.40
2022-08-04T22:44:51.075Z,83.20
2022-08-04T22:47:20.094Z,82.90
2022-08-04T22:49:56.459Z,82.90
2022-08-04T22:52:34.473Z,82.90
2022-08-04T22:55:01.212Z,83.30
2022-08-04T22:57:43.454Z,83.00
2022-08-04T23:00:15.598Z,83.10
2022-08-04T23:02:43.401Z,82.60
2022-08-04T23:05:10.993Z,82.60
2022-08-04T23:07:49.167Z,82.90
2022-08-04T23:10:16.344Z,82.80
2022-08-04T23:12:43.045Z,83.60
2022-08-04T23:15:13.246Z,82.80
2022-08-04T23:17:47.689Z,82.60
2022-08-04T23:20:22.945Z,82.80
2022-08-04T23:22:55.807Z,82.90
2022-08-04T23:25:32.989Z,83.40
2022-08-04T23:28:09.404Z,83.70
2022-08-04T23:30:36.048Z,84.10
2022-08-04T23:33:02.769Z,84.70
2022-08-04T23:35:31.905Z,83.90
2022-08-04T23:38:00.057Z,84.20
2022-08-04T23:40:50.585Z,84.50
2022-08-04T23:43:18.256Z,84.80
2022-08-04T23:46:04.387Z,84.50
2022-08-04T23:48:35.790Z,84.50
2022-08-04T23:51:14.136Z,84.80
2022-08-04T23:54:02.134Z,85.30
2022-08-04T23:56:32.249Z,85.70
2022-08-04T23:59:00.048Z,86.50
